Time;durP1;ratioP1;P1;durP2;ratioP2;P2;SDS_P1;SDS_P2;PMS_P1;PMS_P2;Temp;Humidity;BMP_temperature;BMP_pressure;BME280_temperature;BME280_humidity;BME280_pressure;Samples;Min_cycle;Max_cycle;Signal;HPM_P1;HPM_P2
2023/01/20 00:02:11;;;;;;;51.67;21.65;;;;;;;-1.64;100.00;100827.88;5060012;28;20044;-79
2023/01/20 00:04:37;;;;;;;59.80;22.08;;;;;;;-1.44;100.00;100825.16;5045179;28;20033;-79
2023/01/20 00:07:02;;;;;;;59.80;20.33;;;;;;;-1.48;100.00;100820.31;5046360;28;20056;-79
2023/01/20 00:09:28;;;;;;;56.17;21.95;;;;;;;-1.56;100.00;100820.69;5041539;28;20033;-79
2023/01/20 00:11:53;;;;;;;58.75;22.73;;;;;;;-1.58;100.00;100828.41;5047232;28;20587;-79
2023/01/20 00:14:19;;;;;;;61.60;21.77;;;;;;;-1.51;100.00;100828.09;5064079;28;20075;-78
2023/01/20 00:16:46;;;;;;;52.53;21.45;;;;;;;-1.46;100.00;100832.03;5044521;28;20041;-80
2023/01/20 00:19:13;;;;;;;57.25;21.58;;;;;;;-1.41;100.00;100835.19;5056044;28;20029;-78
2023/01/20 00:21:39;;;;;;;57.97;22.63;;;;;;;-1.38;100.00;100839.28;5047335;28;20037;-78
2023/01/20 00:24:05;;;;;;;51.83;21.17;;;;;;;-1.28;100.00;100835.38;5028411;28;20552;-79
2023/01/20 00:26:30;;;;;;;59.35;24.13;;;;;;;-1.23;100.00;100837.69;5048814;28;20040;-79
2023/01/20 00:28:58;;;;;;;57.53;21.25;;;;;;;-1.12;100.00;100837.94;5041231;28;20033;-79
2023/01/20 00:31:27;;;;;;;59.13;23.23;;;;;;;-0.88;100.00;100840.13;5040121;28;20037;-79
2023/01/20 00:33:54;;;;;;;66.07;24.73;;;;;;;-0.96;100.00;100829.50;5042509;28;20054;-77
2023/01/20 00:36:21;;;;;;;63.50;24.55;;;;;;;-1.05;100.00;100828.28;5025116;28;20032;-77
2023/01/20 00:38:46;;;;;;;70.35;24.75;;;;;;;-0.91;100.00;100836.00;5046214;28;20478;-79
2023/01/20 00:41:12;;;;;;;73.53;26.45;;;;;;;-0.88;100.00;100835.03;5043160;28;20086;-79
2023/01/20 00:43:38;;;;;;;61.60;24.25;;;;;;;-0.93;100.00;100839.53;5045463;28;20040;-78
2023/01/20 00:46:04;;;;;;;68.32;25.85;;;;;;;-0.89;100.00;100839.28;5038215;28;20053;-77
2023/01/20 00:48:30;;;;;;;68.35;25.35;;;;;;;-0.75;100.00;100832.63;5044645;28;20119;-78
2023/01/20 00:50:56;;;;;;;60.13;24.00;;;;;;;-0.75;100.00;100838.56;5041053;28;20055;-78
2023/01/20 00:53:21;;;;;;;75.30;26.48;;;;;;;-0.76;100.00;100841.19;5044268;28;20545;-78
2023/01/20 00:55:47;;;;;;;70.50;26.10;;;;;;;-0.77;100.00;100840.38;5059546;28;20041;-78
2023/01/20 00:58:12;;;;;;;64.80;25.02;;;;;;;-0.64;100.00;100841.34;5050827;28;20087;-78
2023/01/20 01:00:38;;;;;;;83.22;27.70;;;;;;;-0.67;100.00;100840.69;5046558;28;20029;-78
2023/01/20 01:03:04;;;;;;;72.43;26.75;;;;;;;-0.74;100.00;100842.75;5047448;28;20405;-78
2023/01/20 01:05:30;;;;;;;77.20;26.33;;;;;;;-0.76;100.00;100847.09;5043768;28;20029;-78
2023/01/20 01:07:55;;;;;;;68.90;25.75;;;;;;;-0.79;100.00;100854.91;5051111;28;20043;-79
2023/01/20 01:10:21;;;;;;;77.95;27.00;;;;;;;-0.69;100.00;100858.59;5044725;28;20385;-79
2023/01/20 01:12:46;;;;;;;79.68;28.10;;;;;;;-0.68;100.00;100852.63;5065686;28;20028;-79
2023/01/20 01:15:12;;;;;;;81.97;27.65;;;;;;;-0.77;100.00;100859.91;5056658;28;20037;-79
2023/01/20 01:17:37;;;;;;;67.70;26.52;;;;;;;-0.82;100.00;100857.63;5063595;28;20425;-79
2023/01/20 01:20:03;;;;;;;74.30;26.60;;;;;;;-0.76;100.00;100867.47;5049893;28;20037;-79
2023/01/20 01:22:31;;;;;;;71.53;26.27;;;;;;;-0.76;100.00;100864.09;5062369;28;20124;-79
2023/01/20 01:24:57;;;;;;;71.97;27.05;;;;;;;-0.78;100.00;100866.72;5052246;28;20037;-78
2023/01/20 01:27:23;;;;;;;67.60;26.90;;;;;;;-0.69;100.00;100870.53;5031251;28;20051;-78
2023/01/20 01:29:48;;;;;;;68.68;26.05;;;;;;;-0.76;100.00;100869.19;5050371;28;20041;-78
2023/01/20 01:32:14;;;;;;;75.15;27.95;;;;;;;-0.71;100.00;100872.34;5052972;28;20509;-78
2023/01/20 01:34:39;;;;;;;76.32;27.60;;;;;;;-0.75;100.00;100876.75;5049985;28;20063;-79
2023/01/20 01:37:05;;;;;;;69.63;27.23;;;;;;;-0.73;100.00;100879.25;5049090;28;20036;-79
2023/01/20 01:39:30;;;;;;;68.70;29.90;;;;;;;-0.72;100.00;100880.88;5031181;28;20036;-79
2023/01/20 01:41:56;;;;;;;72.00;28.15;;;;;;;-0.72;100.00;100891.06;5030183;28;20024;-79
2023/01/20 01:44:24;;;;;;;75.05;28.80;;;;;;;-0.66;100.00;100894.09;5057439;28;20036;-79
2023/01/20 01:46:50;;;;;;;74.57;28.58;;;;;;;-0.76;100.00;100894.66;5049523;28;20040;-78
2023/01/20 01:49:24;;;;;;;69.07;27.17;;;;;;;-0.69;100.00;100908.72;5065260;28;20056;-80
2023/01/20 01:51:55;;;;;;;68.57;25.30;;;;;;;-0.76;100.00;100908.22;5049825;28;20045;-79
2023/01/20 01:54:24;;;;;;;68.97;27.20;;;;;;;-0.78;100.00;100910.03;5048970;28;20570;-79
2023/01/20 01:56:51;;;;;;;80.03;28.70;;;;;;;-0.67;100.00;100919.66;5050754;28;20041;-79
2023/01/20 01:59:17;;;;;;;73.85;27.70;;;;;;;-0.69;100.00;100918.91;5050191;28;20025;-79
2023/01/20 02:01:47;;;;;;;80.35;26.42;;;;;;;-0.60;100.00;100919.25;5048891;28;20040;-80
2023/01/20 02:04:15;;;;;;;78.20;27.45;;;;;;;-0.65;100.00;100911.03;5050347;28;20029;-79
2023/01/20 02:06:44;;;;;;;69.57;26.63;;;;;;;-0.71;100.00;100913.09;5034380;28;20069;-79
2023/01/20 02:09:10;;;;;;;75.60;27.17;;;;;;;-0.65;100.00;100916.13;5050729;28;20123;-80
2023/01/20 02:11:40;;;;;;;71.72;27.20;;;;;;;-0.60;100.00;100916.69;5051723;28;20561;-79
2023/01/20 02:14:07;;;;;;;61.90;24.85;;;;;;;-0.65;100.00;100918.66;5048742;28;20044;-79
2023/01/20 02:16:57;;;;;;;55.70;22.08;;;;;;;-0.74;100.00;100920.88;5011845;28;20076;-79
2023/01/20 02:19:34;;;;;;;70.30;25.77;;;;;;;-0.75;100.00;100912.41;5031485;28;20410;-79
2023/01/20 02:22:15;;;;;;;68.22;25.90;;;;;;;-0.65;100.00;100908.47;5051101;28;20459;-78
2023/01/20 02:24:57;;;;;;;62.10;22.80;;;;;;;-0.72;100.00;100916.53;5058002;28;20037;-79
2023/01/20 02:27:50;;;;;;;70.35;24.73;;;;;;;-0.72;100.00;100909.69;5066139;28;20039;-79
2023/01/20 02:30:29;;;;;;;73.75;26.23;;;;;;;-0.69;100.00;100912.09;5048061;28;20060;-79
2023/01/20 02:33:03;;;;;;;58.35;22.42;;;;;;;-0.72;100.00;100909.69;5053541;28;20032;-80
2023/01/20 02:35:37;;;;;;;67.15;24.13;;;;;;;-0.65;100.00;100916.13;5049646;28;20115;-79
2023/01/20 02:38:23;;;;;;;63.03;22.55;;;;;;;-0.64;100.00;100922.03;5049155;28;20087;-80
2023/01/20 02:40:56;;;;;;;60.30;22.75;;;;;;;-0.69;100.00;100918.91;5060490;28;20073;-78
2023/01/20 02:43:37;;;;;;;66.03;24.10;;;;;;;-0.70;100.00;100918.06;5045842;28;20194;-79
2023/01/20 02:46:10;;;;;;;59.35;24.48;;;;;;;-0.65;100.00;100921.22;5029956;28;20037;-79
2023/01/20 02:48:45;;;;;;;67.82;23.27;;;;;;;-0.72;100.00;100916.53;5051272;28;20045;-79
2023/01/20 02:51:19;;;;;;;63.25;23.92;;;;;;;-0.72;100.00;100917.34;5046031;28;20041;-80
2023/01/20 02:54:14;;;;;;;63.13;23.00;;;;;;;-0.69;100.00;100922.28;5044997;28;20064;-80
2023/01/20 02:56:41;;;;;;;58.70;21.90;;;;;;;-0.75;100.00;100924.31;5044377;28;20098;-79
2023/01/20 02:59:14;;;;;;;66.43;23.65;;;;;;;-0.68;100.00;100923.09;5047978;28;20452;-78
2023/01/20 03:02:08;;;;;;;68.50;25.17;;;;;;;-0.74;100.00;100924.22;5045289;28;20033;-80
2023/01/20 03:04:40;;;;;;;62.20;22.73;;;;;;;-0.76;100.00;100928.59;5041456;28;20061;-79
2023/01/20 03:07:08;;;;;;;64.82;23.67;;;;;;;-0.69;100.00;100935.00;5049874;28;20033;-79
2023/01/20 03:09:40;;;;;;;74.32;24.63;;;;;;;-0.66;100.00;100928.94;5044549;28;20037;-80
2023/01/20 03:12:16;;;;;;;64.65;23.52;;;;;;;-0.70;100.00;100930.00;5066354;28;20378;-78
2023/01/20 03:14:42;;;;;;;61.58;24.98;;;;;;;-0.74;100.00;100931.88;5043864;28;20039;-79
2023/01/20 03:17:07;;;;;;;69.25;26.02;;;;;;;-0.72;100.00;100929.25;5050364;28;20108;-79
2023/01/20 03:19:34;;;;;;;69.35;25.60;;;;;;;-0.70;100.00;100942.72;5064131;28;20112;-80
2023/01/20 03:21:59;;;;;;;70.18;23.23;;;;;;;-0.73;100.00;100948.81;5050814;28;20040;-78
2023/01/20 03:24:28;;;;;;;72.15;24.48;;;;;;;-0.75;100.00;100947.22;5046637;28;20160;-80
2023/01/20 03:26:53;;;;;;;64.13;25.27;;;;;;;-0.74;100.00;100951.44;5049418;28;20461;-79
2023/01/20 03:29:19;;;;;;;68.90;24.58;;;;;;;-0.74;100.00;100946.34;5044703;28;20040;-79
2023/01/20 03:31:53;;;;;;;67.15;24.05;;;;;;;-0.73;100.00;100950.53;5041360;28;20115;-79
2023/01/20 03:34:21;;;;;;;77.35;25.40;;;;;;;-0.71;100.00;100957.19;5043509;28;20036;-79
2023/01/20 03:36:48;;;;;;;77.32;26.67;;;;;;;-0.74;100.00;100962.44;5046095;28;20432;-79
2023/01/20 03:39:14;;;;;;;71.05;26.13;;;;;;;-0.76;100.00;100953.25;5049054;28;20078;-78
2023/01/20 03:42:17;;;;;;;71.18;27.90;;;;;;;-0.77;100.00;100951.59;5046892;28;20052;-78
2023/01/20 03:45:11;;;;;;;80.38;30.52;;;;;;;-0.77;100.00;100951.59;5048431;28;20106;-79
2023/01/20 03:48:07;;;;;;;73.28;26.85;;;;;;;-0.81;100.00;100950.91;5043127;28;20044;-80
2023/01/20 03:50:44;;;;;;;71.15;26.10;;;;;;;-0.80;100.00;100950.84;5048389;28;20048;-80
2023/01/20 03:53:24;;;;;;;78.78;28.05;;;;;;;-0.74;100.00;100957.34;5049167;28;20112;-79
2023/01/20 03:56:06;;;;;;;68.47;25.95;;;;;;;-0.86;100.00;100952.91;5030687;28;20513;-80
2023/01/20 03:58:36;;;;;;;75.03;25.15;;;;;;;-0.80;100.00;100955.13;5047176;28;20055;-79
2023/01/20 04:01:07;;;;;;;71.70;25.23;;;;;;;-0.87;100.00;100957.16;5043890;28;20053;-79
2023/01/20 04:03:38;;;;;;;71.20;26.40;;;;;;;-0.93;100.00;100962.56;5051502;28;20622;-78
2023/01/20 04:06:07;;;;;;;73.85;27.40;;;;;;;-0.95;100.00;100963.53;5028527;28;20106;-80
2023/01/20 04:08:35;;;;;;;80.00;29.13;;;;;;;-0.98;100.00;100967.03;5049321;28;20112;-80
2023/01/20 04:11:05;;;;;;;73.78;29.60;;;;;;;-1.01;100.00;100960.41;5045711;28;20091;-79
2023/01/20 04:13:31;;;;;;;67.60;27.60;;;;;;;-1.03;100.00;100969.03;5049926;28;20037;-79
2023/01/20 04:15:58;;;;;;;69.93;26.65;;;;;;;-1.06;100.00;100964.06;5046146;28;20037;-80
2023/01/20 04:18:24;;;;;;;67.32;25.90;;;;;;;-0.99;100.00;100958.59;5046801;28;20470;-79
2023/01/20 04:20:54;;;;;;;72.65;26.45;;;;;;;-1.03;100.00;100967.28;5026642;28;20040;-78
2023/01/20 04:23:30;;;;;;;64.18;23.65;;;;;;;-1.07;100.00;100970.91;5036763;28;20072;-78
2023/01/20 04:25:55;;;;;;;69.28;23.50;;;;;;;-1.08;100.00;100969.25;5058455;28;20044;-79
2023/01/20 04:28:20;;;;;;;64.32;25.20;;;;;;;-1.09;100.00;100972.69;5049665;28;20036;-80
2023/01/20 04:30:47;;;;;;;74.22;27.70;;;;;;;-0.91;100.00;100973.47;5044297;28;20049;-79
2023/01/20 04:33:12;;;;;;;60.63;24.65;;;;;;;-0.83;100.00;100978.19;5060531;28;20440;-80
2023/01/20 04:35:37;;;;;;;71.80;24.20;;;;;;;-0.79;100.00;100979.69;5031382;28;20033;-78
2023/01/20 04:38:03;;;;;;;63.65;24.33;;;;;;;-0.71;100.00;100977.56;5030791;28;20420;-79
2023/01/20 04:40:29;;;;;;;57.53;23.98;;;;;;;-0.66;100.00;100980.72;5026987;28;20044;-79
2023/01/20 04:42:54;;;;;;;61.33;23.23;;;;;;;-0.75;100.00;100978.63;5062649;28;20114;-78
2023/01/20 04:45:20;;;;;;;72.32;25.20;;;;;;;-0.75;100.00;100983.72;5049427;28;20444;-79
2023/01/20 04:47:45;;;;;;;61.80;24.48;;;;;;;-0.76;100.00;100979.53;5049679;28;20037;-80
2023/01/20 04:50:12;;;;;;;73.30;28.10;;;;;;;-0.67;100.00;100983.34;5061061;28;20087;-79
2023/01/20 04:52:38;;;;;;;93.95;38.28;;;;;;;-0.72;100.00;100987.84;5048145;28;20082;-80
2023/01/20 04:55:04;;;;;;;66.80;24.95;;;;;;;-0.48;100.00;100975.56;5045567;28;20033;-78
2023/01/20 04:57:30;;;;;;;57.25;22.80;;;;;;;-0.52;100.00;100977.44;5049906;28;20029;-80
2023/01/20 04:59:55;;;;;;;51.42;19.70;;;;;;;-0.54;100.00;100980.97;5030993;28;20051;-81
2023/01/20 05:02:21;;;;;;;52.13;19.95;;;;;;;-0.60;100.00;100977.84;5054191;28;20025;-79
2023/01/20 05:04:46;;;;;;;52.88;19.83;;;;;;;-0.66;100.00;100985.81;5065643;28;20236;-79
2023/01/20 05:07:12;;;;;;;52.15;20.75;;;;;;;-0.67;100.00;100990.97;5050450;28;20034;-80
2023/01/20 05:09:37;;;;;;;55.70;22.27;;;;;;;-0.64;100.00;100988.25;5052359;28;20041;-78
2023/01/20 05:12:03;;;;;;;53.35;20.58;;;;;;;-0.71;100.00;100995.41;5032062;28;20036;-80
2023/01/20 05:14:28;;;;;;;60.45;23.52;;;;;;;-0.71;100.00;100994.59;5057980;28;20037;-83
2023/01/20 05:16:54;;;;;;;59.38;22.05;;;;;;;-0.60;100.00;100990.56;5049254;28;20182;-79
2023/01/20 05:19:19;;;;;;;56.05;22.88;;;;;;;-0.61;100.00;100995.75;5052745;28;20123;-78
2023/01/20 05:21:45;;;;;;;60.38;22.23;;;;;;;-0.67;100.00;101001.16;5051810;28;20045;-80
2023/01/20 05:24:10;;;;;;;62.88;23.17;;;;;;;-0.67;100.00;101003.72;5054822;28;20041;-80
2023/01/20 05:26:36;;;;;;;55.10;22.23;;;;;;;-0.71;100.00;101008.13;5046753;28;20040;-78
2023/01/20 05:29:02;;;;;;;62.40;23.58;;;;;;;-0.64;100.00;101011.16;5049473;28;20112;-79
2023/01/20 05:31:28;;;;;;;56.67;22.30;;;;;;;-0.67;100.00;101006.25;5047741;28;20040;-80
2023/01/20 05:33:53;;;;;;;56.40;22.83;;;;;;;-0.64;100.00;101008.63;5052309;28;20028;-79
2023/01/20 05:36:19;;;;;;;65.45;24.23;;;;;;;-0.55;100.00;101010.72;5047721;28;20033;-77
2023/01/20 05:38:44;;;;;;;64.05;23.77;;;;;;;-0.54;100.00;101011.56;5050063;28;20047;-79
2023/01/20 05:41:10;;;;;;;58.67;23.83;;;;;;;-0.38;100.00;101011.56;5051226;28;20482;-80
2023/01/20 05:43:36;;;;;;;63.63;24.08;;;;;;;-0.44;100.00;101010.16;5063709;28;20047;-80
2023/01/20 05:46:02;;;;;;;58.67;23.70;;;;;;;-0.47;100.00;101007.75;5061637;28;20047;-79
2023/01/20 05:48:27;;;;;;;61.22;22.83;;;;;;;-0.44;100.00;101010.97;5054245;28;20519;-78
2023/01/20 05:50:53;;;;;;;53.05;22.52;;;;;;;-0.31;100.00;101013.72;5050636;28;20163;-79
2023/01/20 05:53:19;;;;;;;56.28;21.95;;;;;;;-0.47;100.00;101018.78;5050017;28;20120;-79
2023/01/20 05:55:44;;;;;;;60.72;23.50;;;;;;;-0.32;100.00;101013.78;5062963;28;20047;-80
2023/01/20 05:58:10;;;;;;;59.38;22.33;;;;;;;-0.45;100.00;101026.38;5044590;28;20383;-80
2023/01/20 06:00:35;;;;;;;60.10;24.05;;;;;;;-0.38;100.00;101031.94;5049481;28;20064;-80
2023/01/20 06:03:02;;;;;;;96.90;32.95;;;;;;;-0.30;100.00;101032.38;5052804;28;20059;-78
2023/01/20 06:05:27;;;;;;;109.60;34.38;;;;;;;-0.37;100.00;101031.88;5063278;28;20067;-79
2023/01/20 06:07:54;;;;;;;154.90;44.63;;;;;;;-0.49;100.00;101035.03;5052373;28;20473;-79
2023/01/20 06:10:19;;;;;;;156.00;44.90;;;;;;;-0.49;100.00;101043.53;5050034;28;20033;-79
2023/01/20 06:12:51;;;;;;;219.57;55.58;;;;;;;-0.43;100.00;101047.50;5052708;28;20390;-80
2023/01/20 06:15:17;;;;;;;93.80;31.33;;;;;;;-0.51;100.00;101041.94;5041051;28;20041;-81
2023/01/20 06:17:43;;;;;;;111.18;33.40;;;;;;;-0.53;100.00;101052.22;5048455;28;20172;-79
2023/01/20 06:20:10;;;;;;;109.55;37.45;;;;;;;-0.45;100.00;101054.41;5073456;28;20508;-79
2023/01/20 06:22:35;;;;;;;65.85;25.98;;;;;;;-0.51;100.00;101055.53;5050907;28;20031;-80
2023/01/20 06:25:01;;;;;;;59.25;23.60;;;;;;;-0.52;100.00;101058.97;5047398;28;20045;-79
2023/01/20 06:27:26;;;;;;;59.60;24.27;;;;;;;-0.41;100.00;101066.88;5042875;28;20033;-79
2023/01/20 06:29:52;;;;;;;54.17;22.15;;;;;;;-0.48;100.00;101059.63;5068430;28;20071;-79
2023/01/20 06:32:17;;;;;;;58.00;20.98;;;;;;;-0.53;100.00;101067.50;5051250;28;20029;-80
2023/01/20 06:34:43;;;;;;;56.90;22.27;;;;;;;-0.59;100.00;101068.63;5063408;28;20017;-81
2023/01/20 06:37:08;;;;;;;57.00;21.30;;;;;;;-0.64;100.00;101067.22;5046006;28;20024;-79
2023/01/20 06:39:34;;;;;;;57.55;21.88;;;;;;;-0.56;100.00;101061.75;5045889;28;20409;-80
2023/01/20 06:41:59;;;;;;;53.42;22.00;;;;;;;-0.59;100.00;101058.44;5051910;28;20574;-78
2023/01/20 06:44:25;;;;;;;53.63;21.35;;;;;;;-0.62;100.00;101063.72;5050026;28;20040;-80
2023/01/20 06:46:51;;;;;;;51.95;20.58;;;;;;;-0.65;100.00;101066.41;5064815;28;20440;-80
2023/01/20 06:49:17;;;;;;;49.78;20.23;;;;;;;-0.64;100.00;101074.84;5047423;28;20029;-79
2023/01/20 06:51:43;;;;;;;58.00;22.50;;;;;;;-0.60;100.00;101066.19;5064702;28;20090;-79
2023/01/20 06:54:08;;;;;;;60.70;23.60;;;;;;;-0.60;100.00;101071.28;5053209;28;20037;-79
2023/01/20 06:56:34;;;;;;;53.08;22.40;;;;;;;-0.59;100.00;101078.00;5049951;28;20557;-80
2023/01/20 06:58:59;;;;;;;55.67;21.83;;;;;;;-0.47;100.00;101081.66;5048173;28;20025;-79
2023/01/20 07:01:29;;;;;;;58.17;22.92;;;;;;;-0.31;100.00;101082.53;5049210;28;20567;-80
2023/01/20 07:03:55;;;;;;;56.05;21.42;;;;;;;-0.40;100.00;101086.38;5048627;28;20033;-81
2023/01/20 07:06:39;;;;;;;52.97;22.10;;;;;;;-0.47;100.00;101084.19;5065986;28;20036;-81
2023/01/20 07:09:06;;;;;;;53.63;21.88;;;;;;;-0.43;100.00;101083.16;5060177;28;20388;-80
2023/01/20 07:11:34;;;;;;;50.80;21.35;;;;;;;-0.50;100.00;101076.72;5047677;28;20033;-80
2023/01/20 07:14:00;;;;;;;55.63;20.52;;;;;;;-0.46;100.00;101078.22;5052587;28;20036;-79
2023/01/20 07:16:25;;;;;;;54.38;20.77;;;;;;;-0.35;100.00;101086.13;5059710;28;20056;-80
2023/01/20 07:18:52;;;;;;;52.17;21.52;;;;;;;-0.41;100.00;101096.66;5046466;28;20044;-79
2023/01/20 07:21:18;;;;;;;56.95;22.17;;;;;;;-0.36;100.00;101094.66;5047999;28;20049;-80
2023/01/20 07:23:44;;;;;;;53.03;21.50;;;;;;;-0.42;100.00;101097.53;5049879;28;20124;-80
2023/01/20 07:26:12;;;;;;;48.40;20.80;;;;;;;-0.29;100.00;101093.47;5042706;28;20041;-80
2023/01/20 07:28:38;;;;;;;53.08;20.65;;;;;;;-0.27;100.00;101114.59;5046002;28;20037;-81
2023/01/20 07:31:12;;;;;;;48.78;21.42;;;;;;;-0.30;100.00;101117.31;5046732;28;20091;-80
2023/01/20 07:33:37;;;;;;;46.03;20.55;;;;;;;-0.31;100.00;101108.00;5028382;28;20029;-83
2023/01/20 07:36:04;;;;;;;47.78;20.38;;;;;;;-0.41;100.00;101112.75;5042216;28;20033;-80
2023/01/20 07:38:29;;;;;;;48.75;20.50;;;;;;;-0.48;100.00;101111.41;5030602;28;20382;-80
2023/01/20 07:40:59;;;;;;;60.53;22.02;;;;;;;-0.43;100.00;101113.75;5050255;28;20110;-80
2023/01/20 07:43:25;;;;;;;54.17;22.40;;;;;;;-0.35;100.00;101123.53;5039348;28;20037;-80
2023/01/20 07:45:58;;;;;;;60.33;21.55;;;;;;;-0.44;100.00;101132.47;5064434;28;20506;-80
2023/01/20 07:48:24;;;;;;;53.35;19.83;;;;;;;-0.45;100.00;101129.09;5059846;28;20039;-81
2023/01/20 07:51:05;;;;;;;52.03;21.00;;;;;;;-0.42;100.00;101133.22;5043184;28;20041;-80
2023/01/20 07:53:32;;;;;;;53.35;19.25;;;;;;;-0.45;100.00;101146.13;5044883;28;20132;-77
2023/01/20 07:56:04;;;;;;;53.42;20.73;;;;;;;-0.40;100.00;101147.53;5042674;28;20119;-78
2023/01/20 07:58:29;;;;;;;48.80;20.35;;;;;;;-0.34;100.00;101137.91;5045203;28;20045;-78
2023/01/20 08:00:55;;;;;;;49.38;20.48;;;;;;;-0.29;100.00;101141.88;5024467;28;20034;-78
2023/01/20 08:03:21;;;;;;;56.70;21.40;;;;;;;-0.37;100.00;101141.47;5047223;28;20028;-78
2023/01/20 08:05:46;;;;;;;49.60;19.90;;;;;;;-0.34;100.00;101141.31;5042237;28;20674;-78
2023/01/20 08:08:12;;;;;;;43.92;19.65;;;;;;;-0.40;100.00;101147.53;5048376;28;20044;-78
2023/01/20 08:10:37;;;;;;;48.63;20.60;;;;;;;-0.40;100.00;101139.91;5025084;28;20060;-78
2023/01/20 08:13:03;;;;;;;50.58;20.35;;;;;;;-0.39;100.00;101153.47;5049976;28;20086;-78
2023/01/20 08:15:28;;;;;;;57.65;19.98;;;;;;;-0.29;100.00;101144.44;5047659;28;20069;-78
2023/01/20 08:17:54;;;;;;;50.88;20.23;;;;;;;-0.13;100.00;101159.78;5045113;28;20120;-77
2023/01/20 08:20:20;;;;;;;53.92;19.70;;;;;;;-0.11;100.00;101167.38;5043231;28;20040;-78
2023/01/20 08:22:46;;;;;;;55.42;20.95;;;;;;;-0.16;100.00;101165.03;5055202;28;20033;-78
2023/01/20 08:25:11;;;;;;;51.15;21.23;;;;;;;-0.15;100.00;101171.78;5059446;28;20481;-79
2023/01/20 08:27:37;;;;;;;52.70;19.63;;;;;;;-0.17;100.00;101167.66;5050004;28;20045;-77
2023/01/20 08:30:03;;;;;;;51.55;20.65;;;;;;;-0.20;100.00;101161.81;5057576;28;20052;-77
2023/01/20 08:32:28;;;;;;;54.17;21.38;;;;;;;0.01;100.00;101160.81;5055643;28;20032;-77
2023/01/20 08:34:54;;;;;;;53.03;21.08;;;;;;;-0.03;100.00;101167.78;5046856;28;20047;-79
2023/01/20 08:37:19;;;;;;;55.53;22.02;;;;;;;-0.09;100.00;101163.00;5043115;28;20081;-77
2023/01/20 08:39:45;;;;;;;58.17;22.00;;;;;;;-0.07;100.00;101162.03;5047481;28;20029;-77
2023/01/20 08:42:10;;;;;;;62.38;22.67;;;;;;;0.11;100.00;101156.88;5048096;28;20098;-77
2023/01/20 08:44:35;;;;;;;57.78;21.52;;;;;;;0.10;100.00;101163.72;5046602;28;20053;-77
2023/01/20 08:47:02;;;;;;;54.17;22.45;;;;;;;0.23;100.00;101169.00;5046685;28;20551;-77
2023/01/20 08:49:28;;;;;;;59.25;22.70;;;;;;;0.14;100.00;101160.09;5060880;28;20044;-77
2023/01/20 08:51:55;;;;;;;55.35;21.60;;;;;;;0.18;100.00;101161.56;5045385;28;20083;-78
2023/01/20 08:54:21;;;;;;;51.42;21.63;;;;;;;0.26;100.00;101168.00;5030028;28;20029;-77
2023/01/20 08:56:51;;;;;;;51.10;21.40;;;;;;;0.20;100.00;101169.16;5043007;28;20041;-78
2023/01/20 08:59:18;;;;;;;55.22;23.05;;;;;;;0.38;100.00;101164.81;5043729;28;20393;-77
2023/01/20 09:01:43;;;;;;;50.28;21.88;;;;;;;0.46;100.00;101160.13;5058355;28;20718;-77
2023/01/20 09:04:10;;;;;;;47.38;20.60;;;;;;;0.48;100.00;101171.06;5043751;28;20036;-77
2023/01/20 09:06:43;;;;;;;46.95;21.45;;;;;;;0.48;100.00;101160.88;5044538;28;20802;-78
2023/01/20 09:09:09;;;;;;;48.95;22.08;;;;;;;0.60;100.00;101167.03;5045653;28;20128;-78
2023/01/20 09:11:35;;;;;;;47.80;20.60;;;;;;;0.64;100.00;101157.47;5041466;28;20136;-77
2023/01/20 09:14:01;;;;;;;53.58;20.73;;;;;;;0.81;100.00;101162.50;5043152;28;20041;-77
2023/01/20 09:16:26;;;;;;;47.05;19.95;;;;;;;0.68;100.00;101170.00;5061000;28;20045;-77
2023/01/20 09:18:51;;;;;;;50.75;21.00;;;;;;;0.74;100.00;101159.47;5052732;28;20052;-77
2023/01/20 09:21:17;;;;;;;45.40;20.30;;;;;;;0.74;100.00;101168.84;5046945;28;20044;-78
2023/01/20 09:23:42;;;;;;;46.55;19.50;;;;;;;0.77;100.00;101161.84;5042618;28;20029;-78
2023/01/20 09:26:09;;;;;;;44.20;18.15;;;;;;;0.73;100.00;101162.09;5046101;28;20037;-80
2023/01/20 09:28:34;;;;;;;39.55;17.67;;;;;;;0.73;100.00;101164.63;5046416;28;20036;-81
2023/01/20 09:31:07;;;;;;;37.30;17.63;;;;;;;0.72;100.00;101171.50;5044693;28;20052;-79
2023/01/20 09:33:35;;;;;;;43.65;19.00;;;;;;;0.74;100.00;101169.66;5047949;28;20028;-80
2023/01/20 09:36:01;;;;;;;41.00;17.48;;;;;;;0.70;100.00;101177.59;5060141;28;20054;-80
2023/01/20 09:44:44;;;;;;;36.75;17.08;;;;;;;0.84;100.00;101169.16;5043863;28;20037;-80
2023/01/20 09:47:31;;;;;;;36.88;16.65;;;;;;;0.85;100.00;101176.75;5046544;28;20048;-78
2023/01/20 09:53:05;;;;;;;34.95;15.40;;;;;;;0.76;100.00;101178.06;5047728;28;20501;-81
2023/01/20 09:56:07;;;;;;;34.40;15.90;;;;;;;0.80;100.00;101173.63;5027230;28;20044;-80
2023/01/20 09:59:06;;;;;;;34.10;16.58;;;;;;;0.92;100.00;101175.53;5011676;28;20048;-80
2023/01/20 10:01:45;;;;;;;39.40;16.70;;;;;;;0.85;100.00;101189.53;5060785;28;20043;-80
2023/01/20 10:04:22;;;;;;;33.80;16.88;;;;;;;0.81;100.00;101190.59;5057141;28;20693;-82
2023/01/20 10:07:23;;;;;;;35.75;15.98;;;;;;;0.89;100.00;101192.72;5047630;28;20276;-80
2023/01/20 10:10:14;;;;;;;43.50;17.45;;;;;;;0.87;100.00;101186.88;5048285;28;20041;-82
2023/01/20 10:12:49;;;;;;;38.90;16.42;;;;;;;0.97;100.00;101188.84;5045705;28;20087;-82
2023/01/20 10:15:25;;;;;;;39.08;15.82;;;;;;;0.94;100.00;101189.03;5046929;28;20076;-82
2023/01/20 10:18:16;;;;;;;44.25;17.45;;;;;;;0.98;100.00;101187.13;5049904;28;20054;-80
2023/01/20 10:20:48;;;;;;;38.85;15.35;;;;;;;1.00;100.00;101190.41;5043412;28;20512;-83
2023/01/20 10:23:43;;;;;;;;;;;;;;;0.90;100.00;101190.06;5050784;28;20021;-84
2023/01/20 10:26:15;;;;;;;34.90;15.63;;;;;;;0.97;100.00;101190.56;5041321;28;20002;-83
2023/01/20 10:28:54;;;;;;;37.65;15.18;;;;;;;0.95;100.00;101195.75;5036057;28;20037;-80
2023/01/20 10:31:27;;;;;;;35.78;16.85;;;;;;;0.88;100.00;101186.78;5043927;28;20040;-83
2023/01/20 10:33:57;;;;;;;38.28;16.58;;;;;;;1.00;100.00;101194.69;5046037;28;20035;-82
2023/01/20 10:36:30;;;;;;;31.75;14.85;;;;;;;0.91;100.00;101194.28;5045925;28;20037;-82
2023/01/20 10:39:18;;;;;;;33.80;15.35;;;;;;;0.94;100.00;101191.56;5063867;28;20496;-81
2023/01/20 10:41:58;;;;;;;33.22;15.05;;;;;;;0.85;100.00;101191.22;5057609;28;20037;-82
2023/01/20 10:44:23;;;;;;;35.28;15.30;;;;;;;0.93;100.00;101191.66;5047767;28;20029;-83
2023/01/20 10:47:15;;;;;;;35.30;14.93;;;;;;;0.81;100.00;101192.31;5031652;28;20040;-83
2023/01/20 10:50:04;;;;;;;37.83;15.98;;;;;;;0.74;100.00;101187.53;5047451;28;20041;-81
2023/01/20 10:52:49;;;;;;;35.15;14.90;;;;;;;0.78;100.00;101188.19;5049808;28;20036;-82
2023/01/20 10:55:56;;;;;;;34.72;15.88;;;;;;;0.82;100.00;101187.13;5047858;28;20049;-82
2023/01/20 10:58:30;;;;;;;35.03;14.90;;;;;;;0.83;100.00;101185.38;5049512;28;20025;-79
2023/01/20 11:00:58;;;;;;;34.42;15.57;;;;;;;0.71;100.00;101184.31;5053402;28;20045;-82
2023/01/20 11:03:24;;;;;;;37.65;16.52;;;;;;;0.80;100.00;101191.50;5048571;28;20035;-80
2023/01/20 11:05:51;;;;;;;37.97;15.05;;;;;;;0.76;100.00;101188.28;5051158;28;20171;-81
2023/01/20 11:08:21;;;;;;;36.97;15.30;;;;;;;0.83;100.00;101178.56;5045342;28;20033;-80
2023/01/20 11:10:50;;;;;;;31.27;15.43;;;;;;;0.73;100.00;101179.97;5047278;28;20048;-80
2023/01/20 11:13:16;;;;;;;33.78;16.08;;;;;;;0.70;100.00;101183.50;5033541;28;20079;-82
2023/01/20 11:15:45;;;;;;;34.92;15.52;;;;;;;0.73;100.00;101180.78;5046160;28;20037;-82
2023/01/20 11:18:14;;;;;;;32.58;15.00;;;;;;;0.70;100.00;101180.97;5043891;28;20489;-79
2023/01/20 11:21:02;;;;;;;32.08;15.35;;;;;;;0.70;100.00;101182.69;5029219;28;21326;-80
2023/01/20 11:23:33;;;;;;;39.33;15.35;;;;;;;0.68;100.00;101187.03;5049364;28;20040;-78
2023/01/20 11:26:08;;;;;;;35.05;14.38;;;;;;;0.73;100.00;101183.31;5043479;28;20091;-79